QFA1805 YSSY-YMML
Flight info
| Callsign | QFA1805 |
|---|---|
| Flight time | 1h 26m |
| Altitude | 38000 |
| Route | WOL H65 LEECE Q29 ML |
| Aircraft | B38M/M-SDE1FGHILORVWXY/HB1 |
Departure
| Time | 2026-05-04 08:29 |
|---|---|
| Airport | Sydney Kingsford Smith International Airport (YSSY) |
Arrival
| Time | 2026-05-04 09:55 |
|---|---|
| Airport | Melbourne Airport (YMML) |
| Time | Latitude | Longitude | Altitude | Speed | Heading |
|---|---|---|---|---|---|
| 2026-05-04 07:47 | -33.94001 | 151.16620 | 25 ft | 0 kts | 345° |
| 2026-05-04 08:13 | -33.94002 | 151.16621 | 22 ft | 1 kts | 345° |
| 2026-05-04 08:14 | -33.94024 | 151.16627 | 25 ft | 6 kts | 344° |
| 2026-05-04 08:14 | -33.94082 | 151.16643 | 25 ft | 11 kts | 12° |
| 2026-05-04 08:14 | -33.94109 | 151.16619 | 25 ft | 0 kts | 68° |
| 2026-05-04 08:16 | -33.94109 | 151.16620 | 25 ft | 0 kts | 68° |
| 2026-05-04 08:16 | -33.94104 | 151.16639 | 25 ft | 5 kts | 75° |
| 2026-05-04 08:16 | -33.94092 | 151.16699 | 22 ft | 10 kts | 78° |
| 2026-05-04 08:17 | -33.94084 | 151.16794 | 24 ft | 12 kts | 107° |
| 2026-05-04 08:17 | -33.94130 | 151.16836 | 24 ft | 0 kts | 163° |
| 2026-05-04 08:17 | -33.94154 | 151.16843 | 26 ft | 6 kts | 167° |
| 2026-05-04 08:17 | -33.94216 | 151.16860 | 24 ft | 12 kts | 167° |
| 2026-05-04 08:19 | -33.94342 | 151.17269 | 30 ft | 6 kts | 85° |
| 2026-05-04 08:19 | -33.94366 | 151.17324 | 27 ft | 8 kts | 142° |
| 2026-05-04 08:20 | -33.94426 | 151.17344 | 27 ft | 12 kts | 168° |
| 2026-05-04 08:20 | -33.94534 | 151.17372 | 27 ft | 19 kts | 168° |
| 2026-05-04 08:20 | -33.94688 | 151.17411 | 27 ft | 26 kts | 167° |
| 2026-05-04 08:20 | -33.94878 | 151.17461 | 23 ft | 29 kts | 167° |
| 2026-05-04 08:21 | -33.95072 | 151.17510 | 21 ft | 27 kts | 168° |
| 2026-05-04 08:21 | -33.95256 | 151.17557 | 19 ft | 27 kts | 168° |
| 2026-05-04 08:21 | -33.95426 | 151.17602 | 21 ft | 24 kts | 167° |
| 2026-05-04 08:21 | -33.95580 | 151.17642 | 27 ft | 21 kts | 167° |
| 2026-05-04 08:22 | -33.95714 | 151.17678 | 26 ft | 18 kts | 168° |
| 2026-05-04 08:22 | -33.95837 | 151.17709 | 25 ft | 18 kts | 168° |
| 2026-05-04 08:24 | -33.96405 | 151.17858 | 27 ft | 0 kts | 155° |
| 2026-05-04 08:27 | -33.96402 | 151.17916 | 29 ft | 10 kts | 82° |
| 2026-05-04 08:28 | -33.96413 | 151.18026 | 27 ft | 14 kts | 86° |
| 2026-05-04 08:28 | -33.96351 | 151.18052 | 27 ft | 26 kts | 349° |
| 2026-05-04 08:28 | -33.95798 | 151.17913 | 24 ft | 133 kts | 349° |
| 2026-05-04 08:28 | -33.94700 | 151.17631 | 505 ft | 182 kts | 349° |
| 2026-05-04 08:29 | -33.93869 | 151.17400 | 1212 ft | 182 kts | 347° |
| 2026-05-04 08:29 | -33.92546 | 151.16325 | 3574 ft | 162 kts | 311° |
| 2026-05-04 08:29 | -33.91994 | 151.15106 | 4848 ft | 178 kts | 296° |
| 2026-05-04 08:31 | -33.94985 | 151.02262 | 5001 ft | 282 kts | 231° |
| 2026-05-04 08:33 | -34.07248 | 150.94889 | 4999 ft | 293 kts | 200° |
| 2026-05-04 08:33 | -34.09220 | 150.94241 | 5002 ft | 294 kts | 199° |
| 2026-05-04 08:35 | -34.22390 | 150.89983 | 5003 ft | 295 kts | 199° |
| 2026-05-04 08:35 | -34.24358 | 150.89324 | 4982 ft | 294 kts | 194° |
| 2026-05-04 08:35 | -34.26422 | 150.89544 | 4999 ft | 306 kts | 159° |
| 2026-05-04 08:35 | -34.28101 | 150.91030 | 5023 ft | 300 kts | 124° |
| 2026-05-04 08:37 | -34.30398 | 151.05945 | 10547 ft | 319 kts | 93° |
| 2026-05-04 08:37 | -34.30691 | 151.08669 | 11173 ft | 335 kts | 93° |
| 2026-05-04 08:37 | -34.30987 | 151.11533 | 11674 ft | 351 kts | 93° |
| 2026-05-04 08:38 | -34.31396 | 151.14521 | 12000 ft | 367 kts | 103° |
| 2026-05-04 08:38 | -34.32419 | 151.17374 | 12012 ft | 373 kts | 117° |
| 2026-05-04 08:38 | -34.34005 | 151.19882 | 12017 ft | 377 kts | 135° |
| 2026-05-04 08:40 | -34.48161 | 151.15616 | 16731 ft | 346 kts | 263° |
| 2026-05-04 08:40 | -34.48457 | 151.12727 | 17518 ft | 346 kts | 271° |
| 2026-05-04 08:40 | -34.48572 | 151.09808 | 18295 ft | 350 kts | 271° |
| 2026-05-04 08:41 | -34.48773 | 151.06849 | 18966 ft | 355 kts | 268° |
| 2026-05-04 08:41 | -34.49224 | 151.03885 | 19682 ft | 362 kts | 260° |
| 2026-05-04 08:41 | -34.50012 | 151.00958 | 20417 ft | 367 kts | 256° |
| 2026-05-04 08:41 | -34.50918 | 150.98055 | 21141 ft | 369 kts | 256° |
| 2026-05-04 08:42 | -34.51733 | 150.95105 | 21884 ft | 369 kts | 259° |
| 2026-05-04 08:42 | -34.52449 | 150.92114 | 22609 ft | 370 kts | 260° |
| 2026-05-04 08:42 | -34.53192 | 150.89117 | 23327 ft | 373 kts | 259° |
| 2026-05-04 08:42 | -34.53991 | 150.86109 | 23969 ft | 375 kts | 258° |
| 2026-05-04 08:43 | -34.54793 | 150.83082 | 24552 ft | 378 kts | 259° |
| 2026-05-04 08:43 | -34.55674 | 150.80058 | 25109 ft | 385 kts | 252° |
| 2026-05-04 08:43 | -34.56994 | 150.77169 | 25655 ft | 397 kts | 243° |
| 2026-05-04 08:43 | -34.58635 | 150.74423 | 26216 ft | 403 kts | 242° |
| 2026-05-04 08:44 | -34.60298 | 150.71671 | 26727 ft | 406 kts | 242° |
| 2026-05-04 08:44 | -34.61971 | 150.68893 | 27246 ft | 410 kts | 242° |
| 2026-05-04 08:46 | -34.73953 | 150.48945 | 28881 ft | 421 kts | 242° |
| 2026-05-04 08:46 | -34.75688 | 150.46053 | 29334 ft | 425 kts | 242° |
| 2026-05-04 08:46 | -34.77430 | 150.43143 | 29714 ft | 427 kts | 242° |
| 2026-05-04 08:46 | -34.79185 | 150.40206 | 30100 ft | 430 kts | 242° |
| 2026-05-04 08:47 | -34.80947 | 150.37257 | 30446 ft | 432 kts | 242° |
| 2026-05-04 08:47 | -34.82722 | 150.34283 | 30794 ft | 435 kts | 242° |
| 2026-05-04 08:47 | -34.84503 | 150.31296 | 31093 ft | 436 kts | 242° |
| 2026-05-04 08:47 | -34.86289 | 150.28302 | 31453 ft | 438 kts | 242° |
| 2026-05-04 08:48 | -34.88080 | 150.25294 | 31796 ft | 439 kts | 242° |
| 2026-05-04 08:48 | -34.89876 | 150.22279 | 32107 ft | 439 kts | 242° |
| 2026-05-04 08:48 | -34.91664 | 150.19271 | 32603 ft | 436 kts | 242° |
| 2026-05-04 08:48 | -34.93440 | 150.16278 | 33091 ft | 434 kts | 243° |
| 2026-05-04 08:49 | -34.95202 | 150.13310 | 33533 ft | 431 kts | 243° |
| 2026-05-04 08:50 | -35.05576 | 149.95776 | 35890 ft | 420 kts | 243° |
| 2026-05-04 08:50 | -35.07278 | 149.92890 | 36214 ft | 420 kts | 243° |
| 2026-05-04 08:51 | -35.08986 | 149.89993 | 36522 ft | 419 kts | 243° |
| 2026-05-04 08:51 | -35.10690 | 149.87101 | 36834 ft | 419 kts | 243° |
| 2026-05-04 08:51 | -35.12393 | 149.84208 | 37164 ft | 419 kts | 243° |
| 2026-05-04 08:51 | -35.14093 | 149.81318 | 37461 ft | 419 kts | 243° |
| 2026-05-04 08:52 | -35.15794 | 149.78422 | 37749 ft | 419 kts | 243° |
| 2026-05-04 08:52 | -35.17495 | 149.75524 | 38002 ft | 420 kts | 243° |
| 2026-05-04 08:52 | -35.20904 | 149.69715 | 38038 ft | 420 kts | 243° |
| 2026-05-04 08:54 | -35.34536 | 149.46373 | 38065 ft | 421 kts | 243° |
| 2026-05-04 08:55 | -35.37960 | 149.40488 | 38065 ft | 421 kts | 243° |
| 2026-05-04 08:55 | -35.41339 | 149.34666 | 38067 ft | 421 kts | 243° |
| 2026-05-04 09:01 | -35.76317 | 148.73851 | 38070 ft | 421 kts | 243° |
| 2026-05-04 09:01 | -35.79683 | 148.67940 | 38071 ft | 421 kts | 243° |
| 2026-05-04 09:02 | -35.83048 | 148.62022 | 38063 ft | 422 kts | 243° |
| 2026-05-04 09:02 | -35.86415 | 148.56093 | 38067 ft | 421 kts | 243° |
| 2026-05-04 09:03 | -35.89776 | 148.50156 | 38067 ft | 421 kts | 244° |
| 2026-05-04 09:03 | -35.93128 | 148.44197 | 38079 ft | 423 kts | 243° |
| 2026-05-04 09:04 | -35.96494 | 148.38224 | 38076 ft | 423 kts | 243° |
| 2026-05-04 09:04 | -35.99848 | 148.32241 | 38072 ft | 424 kts | 243° |
| 2026-05-04 09:05 | -36.03229 | 148.26220 | 38068 ft | 423 kts | 243° |
| 2026-05-04 09:05 | -36.06578 | 148.20228 | 38061 ft | 423 kts | 243° |
| 2026-05-04 09:06 | -36.09967 | 148.14165 | 38081 ft | 425 kts | 243° |
| 2026-05-04 09:08 | -36.23413 | 147.90083 | 38064 ft | 424 kts | 243° |
| 2026-05-04 09:08 | -36.26758 | 147.84069 | 38077 ft | 424 kts | 243° |
| 2026-05-04 09:09 | -36.30107 | 147.78036 | 38063 ft | 424 kts | 243° |
| 2026-05-04 09:09 | -36.33458 | 147.71991 | 38059 ft | 425 kts | 243° |
| 2026-05-04 09:10 | -36.36803 | 147.65930 | 38056 ft | 425 kts | 243° |
| 2026-05-04 09:10 | -36.40138 | 147.59875 | 38055 ft | 425 kts | 243° |
| 2026-05-04 09:11 | -36.43481 | 147.53798 | 38051 ft | 426 kts | 243° |
| 2026-05-04 09:11 | -36.46814 | 147.47728 | 38055 ft | 426 kts | 243° |
| 2026-05-04 09:12 | -36.50170 | 147.41604 | 38052 ft | 427 kts | 243° |
| 2026-05-04 09:14 | -36.63455 | 147.17254 | 38042 ft | 425 kts | 243° |
| 2026-05-04 09:14 | -36.66776 | 147.11139 | 38039 ft | 425 kts | 243° |
| 2026-05-04 09:15 | -36.70081 | 147.05045 | 38028 ft | 424 kts | 243° |
| 2026-05-04 09:15 | -36.73363 | 146.98979 | 38030 ft | 425 kts | 243° |
| 2026-05-04 09:17 | -36.88226 | 146.71378 | 38031 ft | 427 kts | 243° |
| 2026-05-04 09:18 | -36.89879 | 146.68294 | 37909 ft | 425 kts | 243° |
| 2026-05-04 09:18 | -36.91520 | 146.65231 | 37376 ft | 426 kts | 244° |
| 2026-05-04 09:18 | -36.93166 | 146.62152 | 36693 ft | 426 kts | 244° |
| 2026-05-04 09:18 | -36.94815 | 146.59066 | 35868 ft | 429 kts | 244° |
| 2026-05-04 09:19 | -36.96477 | 146.55952 | 35010 ft | 433 kts | 244° |
| 2026-05-04 09:19 | -36.98158 | 146.52802 | 34205 ft | 435 kts | 245° |
| 2026-05-04 09:19 | -36.99838 | 146.49655 | 33290 ft | 436 kts | 245° |
| 2026-05-04 09:19 | -37.01519 | 146.46499 | 32556 ft | 434 kts | 245° |
| 2026-05-04 09:20 | -37.03187 | 146.43372 | 31894 ft | 430 kts | 245° |
| 2026-05-04 09:20 | -37.04836 | 146.40269 | 31256 ft | 426 kts | 246° |
| 2026-05-04 09:20 | -37.06469 | 146.37192 | 30654 ft | 423 kts | 246° |
| 2026-05-04 09:20 | -37.08089 | 146.34137 | 30095 ft | 418 kts | 247° |
| 2026-05-04 09:21 | -37.09692 | 146.31116 | 29452 ft | 414 kts | 246° |
| 2026-05-04 09:21 | -37.11271 | 146.28135 | 28812 ft | 408 kts | 246° |
| 2026-05-04 09:21 | -37.12831 | 146.25187 | 28184 ft | 403 kts | 246° |
| 2026-05-04 09:21 | -37.14369 | 146.22275 | 27564 ft | 399 kts | 246° |
| 2026-05-04 09:22 | -37.15895 | 146.19386 | 26945 ft | 394 kts | 246° |
| 2026-05-04 09:22 | -37.17404 | 146.16527 | 26333 ft | 391 kts | 245° |
| 2026-05-04 09:22 | -37.18893 | 146.13702 | 25741 ft | 387 kts | 245° |
| 2026-05-04 09:22 | -37.20373 | 146.10891 | 25148 ft | 385 kts | 244° |
| 2026-05-04 09:23 | -37.21844 | 146.08097 | 24561 ft | 382 kts | 244° |
| 2026-05-04 09:23 | -37.23307 | 146.05319 | 23984 ft | 379 kts | 243° |
| 2026-05-04 09:23 | -37.24752 | 146.02570 | 23489 ft | 375 kts | 242° |
| 2026-05-04 09:23 | -37.26180 | 145.99849 | 22827 ft | 371 kts | 242° |
| 2026-05-04 09:25 | -37.35775 | 145.81563 | 18718 ft | 345 kts | 240° |
| 2026-05-04 09:25 | -37.37090 | 145.79054 | 18166 ft | 343 kts | 242° |
| 2026-05-04 09:26 | -37.38392 | 145.76565 | 17581 ft | 339 kts | 240° |
| 2026-05-04 09:26 | -37.39682 | 145.74101 | 16985 ft | 336 kts | 241° |
| 2026-05-04 09:26 | -37.40963 | 145.71654 | 16395 ft | 333 kts | 241° |
| 2026-05-04 09:26 | -37.42231 | 145.69227 | 15838 ft | 330 kts | 241° |
| 2026-05-04 09:27 | -37.43468 | 145.66859 | 15274 ft | 327 kts | 241° |
| 2026-05-04 09:27 | -37.44711 | 145.64476 | 14702 ft | 324 kts | 241° |
| 2026-05-04 09:27 | -37.46013 | 145.62171 | 14125 ft | 322 kts | 238° |
| 2026-05-04 09:27 | -37.47337 | 145.59907 | 13597 ft | 319 kts | 238° |
| 2026-05-04 09:28 | -37.48641 | 145.57659 | 13019 ft | 317 kts | 238° |
| 2026-05-04 09:28 | -37.49936 | 145.55426 | 12435 ft | 315 kts | 239° |
| 2026-05-04 09:28 | -37.51227 | 145.53208 | 11863 ft | 312 kts | 239° |
| 2026-05-04 09:28 | -37.52511 | 145.51001 | 11329 ft | 310 kts | 238° |
| 2026-05-04 09:29 | -37.53778 | 145.48817 | 10782 ft | 307 kts | 238° |
| 2026-05-04 09:29 | -37.55034 | 145.46648 | 10267 ft | 305 kts | 238° |
| 2026-05-04 09:29 | -37.56280 | 145.44497 | 9763 ft | 302 kts | 239° |
| 2026-05-04 09:29 | -37.57515 | 145.42367 | 9216 ft | 300 kts | 239° |
| 2026-05-04 09:30 | -37.58735 | 145.40261 | 9031 ft | 297 kts | 239° |
| 2026-05-04 09:30 | -37.59951 | 145.38155 | 9032 ft | 302 kts | 239° |
| 2026-05-04 09:30 | -37.61188 | 145.36014 | 9020 ft | 302 kts | 239° |
| 2026-05-04 09:30 | -37.62425 | 145.33877 | 9023 ft | 300 kts | 239° |
| 2026-05-04 09:31 | -37.63658 | 145.31742 | 9008 ft | 302 kts | 239° |
| 2026-05-04 09:31 | -37.64887 | 145.29612 | 9024 ft | 300 kts | 239° |
| 2026-05-04 09:31 | -37.65722 | 145.28163 | 9014 ft | 302 kts | 239° |
| 2026-05-04 09:31 | -37.66939 | 145.26049 | 9014 ft | 301 kts | 238° |
| 2026-05-04 09:32 | -37.68171 | 145.23915 | 9015 ft | 300 kts | 238° |
| 2026-05-04 09:32 | -37.69397 | 145.21785 | 9012 ft | 299 kts | 239° |
| 2026-05-04 09:34 | -37.77700 | 145.07327 | 6891 ft | 275 kts | 239° |
| 2026-05-04 09:34 | -37.78817 | 145.05375 | 6466 ft | 273 kts | 239° |
| 2026-05-04 09:34 | -37.79925 | 145.03441 | 6035 ft | 270 kts | 239° |
| 2026-05-04 09:34 | -37.81002 | 145.01505 | 5628 ft | 265 kts | 246° |
| 2026-05-04 09:35 | -37.81638 | 144.99374 | 5199 ft | 256 kts | 260° |
| 2026-05-04 09:35 | -37.82018 | 144.97196 | 4773 ft | 253 kts | 261° |
| 2026-05-04 09:35 | -37.82390 | 144.95030 | 4323 ft | 250 kts | 261° |
| 2026-05-04 09:35 | -37.82691 | 144.92881 | 3876 ft | 247 kts | 264° |
| 2026-05-04 09:37 | -37.77356 | 144.85986 | 2054 ft | 138 kts | 345° |
| 2026-05-04 09:37 | -37.76411 | 144.85853 | 1904 ft | 130 kts | 345° |
| 2026-05-04 09:38 | -37.75523 | 144.85709 | 1599 ft | 124 kts | 342° |
| 2026-05-04 09:38 | -37.74620 | 144.85507 | 1443 ft | 134 kts | 344° |
| 2026-05-04 09:38 | -37.73737 | 144.85296 | 1305 ft | 134 kts | 347° |
| 2026-05-04 09:38 | -37.72853 | 144.85060 | 1222 ft | 128 kts | 347° |
| 2026-05-04 09:39 | -37.71979 | 144.84841 | 1036 ft | 123 kts | 348° |
| 2026-05-04 09:39 | -37.71130 | 144.84622 | 933 ft | 126 kts | 349° |
| 2026-05-04 09:39 | -37.70258 | 144.84437 | 703 ft | 121 kts | 352° |
| 2026-05-04 09:39 | -37.69419 | 144.84265 | 619 ft | 115 kts | 352° |
| 2026-05-04 09:40 | -37.68639 | 144.84114 | 419 ft | 116 kts | 352° |
| 2026-05-04 09:40 | -37.67857 | 144.83970 | 662 ft | 110 kts | 353° |
| 2026-05-04 09:40 | -37.67049 | 144.83827 | 1340 ft | 123 kts | 348° |
| 2026-05-04 09:40 | -37.66156 | 144.83650 | 2111 ft | 137 kts | 344° |
| 2026-05-04 09:41 | -37.65257 | 144.83463 | 3222 ft | 110 kts | 339° |
| 2026-05-04 09:42 | -37.59306 | 144.79839 | 5811 ft | 235 kts | 271° |
| 2026-05-04 09:43 | -37.59496 | 144.77580 | 5608 ft | 284 kts | 264° |
| 2026-05-04 09:43 | -37.59851 | 144.74917 | 5357 ft | 306 kts | 262° |
| 2026-05-04 09:43 | -37.60212 | 144.72484 | 5060 ft | 264 kts | 262° |
| 2026-05-04 09:43 | -37.60629 | 144.70350 | 4741 ft | 233 kts | 245° |
| 2026-05-04 09:44 | -37.61758 | 144.69024 | 4468 ft | 224 kts | 206° |
| 2026-05-04 09:44 | -37.63327 | 144.68922 | 4224 ft | 233 kts | 178° |
| 2026-05-04 09:44 | -37.64923 | 144.69367 | 4006 ft | 233 kts | 173° |
| 2026-05-04 09:46 | -37.75741 | 144.73220 | 4004 ft | 228 kts | 172° |
| 2026-05-04 09:46 | -37.77321 | 144.73809 | 4003 ft | 229 kts | 172° |
| 2026-05-04 09:46 | -37.78811 | 144.74361 | 4000 ft | 228 kts | 172° |
| 2026-05-04 09:47 | -37.80338 | 144.74925 | 4001 ft | 227 kts | 172° |
| 2026-05-04 09:47 | -37.81866 | 144.75488 | 3813 ft | 230 kts | 171° |
| 2026-05-04 09:49 | -37.90380 | 144.82393 | 2498 ft | 227 kts | 66° |
| 2026-05-04 09:49 | -37.89862 | 144.84216 | 2517 ft | 209 kts | 62° |
| 2026-05-04 09:49 | -37.89313 | 144.85978 | 2519 ft | 213 kts | 61° |
| 2026-05-04 09:51 | -37.83818 | 144.88484 | 2484 ft | 141 kts | 338° |
| 2026-05-04 09:51 | -37.82865 | 144.88214 | 2204 ft | 133 kts | 338° |
| 2026-05-04 09:51 | -37.81924 | 144.87949 | 2325 ft | 142 kts | 339° |
| 2026-05-04 09:51 | -37.80965 | 144.87733 | 2377 ft | 140 kts | 340° |
| 2026-05-04 09:52 | -37.80000 | 144.87521 | 2275 ft | 138 kts | 340° |
| 2026-05-04 09:52 | -37.79072 | 144.87296 | 2138 ft | 131 kts | 339° |
| 2026-05-04 09:52 | -37.78167 | 144.87000 | 2061 ft | 137 kts | 335° |
| 2026-05-04 09:52 | -37.77302 | 144.86612 | 2080 ft | 133 kts | 331° |
| 2026-05-04 09:53 | -37.76417 | 144.86185 | 1851 ft | 133 kts | 336° |
| 2026-05-04 09:53 | -37.75587 | 144.85882 | 1304 ft | 116 kts | 338° |
| 2026-05-04 09:53 | -37.74789 | 144.85596 | 1064 ft | 120 kts | 344° |
| 2026-05-04 09:53 | -37.73908 | 144.85336 | 1147 ft | 139 kts | 346° |
| 2026-05-04 09:54 | -37.73015 | 144.85070 | 1106 ft | 134 kts | 348° |
| 2026-05-04 09:54 | -37.72109 | 144.84854 | 1275 ft | 138 kts | 347° |
| 2026-05-04 09:54 | -37.71155 | 144.84636 | 941 ft | 140 kts | 348° |
| 2026-05-04 09:54 | -37.70200 | 144.84399 | 746 ft | 142 kts | 351° |
| 2026-05-04 09:55 | -37.69270 | 144.84223 | 567 ft | 131 kts | 355° |
| 2026-05-04 09:55 | -37.68363 | 144.84059 | 354 ft | 116 kts | 353° |
| 2026-05-04 09:55 | -37.67772 | 144.83950 | 361 ft | 56 kts | 352° |
| 2026-05-04 09:55 | -37.67493 | 144.83900 | 367 ft | 31 kts | 351° |
| 2026-05-04 09:56 | -37.67334 | 144.83873 | 372 ft | 16 kts | 354° |
| 2026-05-04 09:56 | -37.67258 | 144.83862 | 376 ft | 9 kts | 353° |
| 2026-05-04 09:56 | -37.67022 | 144.83843 | 382 ft | 48 kts | 8° |
| 2026-05-04 09:56 | -37.66789 | 144.83938 | 384 ft | 12 kts | 22° |
| 2026-05-04 09:57 | -37.66781 | 144.83942 | 384 ft | 0 kts | 22° |
| 2026-05-04 10:00 | -37.66772 | 144.83947 | 384 ft | 0 kts | 27° |
| 2026-05-04 10:02 | -37.66576 | 144.84050 | 382 ft | 6 kts | 35° |
| 2026-05-04 10:04 | -37.66495 | 144.84791 | 330 ft | 11 kts | 128° |
| 2026-05-04 10:04 | -37.66516 | 144.84804 | 333 ft | 0 kts | 176° |
| 2026-05-04 10:04 | -37.66523 | 144.84804 | 331 ft | 4 kts | 178° |
| 2026-05-04 10:04 | -37.66574 | 144.84799 | 334 ft | 10 kts | 189° |
| 2026-05-04 10:05 | -37.66659 | 144.84799 | 338 ft | 12 kts | 167° |
| 2026-05-04 10:05 | -37.66727 | 144.84821 | 346 ft | 8 kts | 164° |
| 2026-05-04 10:05 | -37.66764 | 144.84843 | 343 ft | 4 kts | 132° |
| 2026-05-04 10:05 | -37.66766 | 144.84861 | 343 ft | 3 kts | 81° |
| 2026-05-04 10:06 | -37.66759 | 144.84906 | 345 ft | 4 kts | 89° |
| 2026-05-04 10:06 | -37.66758 | 144.84911 | 345 ft | 0 kts | 82° |